createdAt,value
2023-05-02T00:01:19.327Z,25.3
2023-05-02T00:06:19.361Z,25.4
2023-05-02T00:11:19.345Z,25.4
2023-05-02T00:16:19.329Z,25.3
2023-05-02T00:21:19.350Z,25.7
2023-05-02T00:26:19.350Z,25.7
2023-05-02T00:31:19.367Z,25.9
2023-05-02T00:36:19.526Z,27.2
2023-05-02T00:41:19.344Z,27.6
2023-05-02T00:46:19.338Z,27.8
2023-05-02T00:51:19.383Z,28.3
2023-05-02T00:56:19.309Z,30
2023-05-02T01:01:19.377Z,30
2023-05-02T01:06:19.415Z,30
2023-05-02T01:11:19.387Z,30
2023-05-02T01:16:19.407Z,30
2023-05-02T01:21:19.383Z,29.9
2023-05-02T01:26:19.336Z,29.9
2023-05-02T01:31:19.354Z,29.9
2023-05-02T01:36:19.370Z,32.5
2023-05-02T01:41:19.345Z,32.5
2023-05-02T01:46:19.322Z,30.9
2023-05-02T01:51:19.350Z,31.9
2023-05-02T01:56:19.372Z,32.5
2023-05-02T02:01:19.390Z,32.9
2023-05-02T02:06:19.420Z,34.8
2023-05-02T02:11:19.312Z,35.1
2023-05-02T02:16:19.407Z,35.3
2023-05-02T02:21:19.318Z,37.4
2023-05-02T02:26:19.369Z,38.7
2023-05-02T02:31:19.431Z,38.7
2023-05-02T02:36:19.402Z,38.2
2023-05-02T02:41:19.323Z,37.7
2023-05-02T02:46:19.412Z,37.7
2023-05-02T02:51:19.344Z,37.7
2023-05-02T02:56:19.354Z,37
2023-05-02T03:01:19.389Z,37
2023-05-02T03:06:19.423Z,36.7
2023-05-02T03:11:19.352Z,36.4
2023-05-02T03:16:19.453Z,36
2023-05-02T03:21:19.351Z,36
2023-05-02T03:26:19.496Z,36
2023-05-02T03:31:19.394Z,35.9
2023-05-02T03:36:19.353Z,35.9
2023-05-02T03:41:19.353Z,35.9
2023-05-02T03:46:19.394Z,36
2023-05-02T03:51:19.314Z,35.5
2023-05-02T03:56:19.397Z,35.5
2023-05-02T04:01:19.398Z,35.5
2023-05-02T04:06:19.384Z,39.5
2023-05-02T04:11:19.373Z,38.7
2023-05-02T04:16:19.389Z,38.7
2023-05-02T04:21:19.388Z,38.7
2023-05-02T04:26:19.409Z,39.5
2023-05-02T04:31:19.391Z,40.6
2023-05-02T04:36:19.368Z,42.5
2023-05-02T04:41:19.349Z,44.3
2023-05-02T04:46:19.416Z,44.5
2023-05-02T04:51:19.394Z,48.2
2023-05-02T04:56:19.381Z,48.6
2023-05-02T05:01:19.537Z,48.6
2023-05-02T05:06:19.476Z,48.6
2023-05-02T05:11:19.373Z,48.2
2023-05-02T05:16:19.380Z,47.2
2023-05-02T05:21:19.384Z,38.5
2023-05-02T05:26:19.454Z,38.1
2023-05-02T05:31:19.428Z,37.6
2023-05-02T05:36:20.001Z,35.9
2023-05-02T05:41:19.390Z,33.5
2023-05-02T05:46:19.408Z,31.6
2023-05-02T05:51:19.372Z,31.5
2023-05-02T05:56:19.372Z,29.5
2023-05-02T06:01:19.396Z,28
2023-05-02T06:06:19.527Z,27.7
2023-05-02T06:11:20.706Z,26.8
2023-05-02T06:16:19.424Z,25.6
2023-05-02T06:21:19.387Z,23.5
2023-05-02T06:26:19.328Z,22.9
2023-05-02T06:31:19.433Z,22.8
2023-05-02T06:36:19.338Z,22.4
2023-05-02T06:41:19.373Z,22.4
2023-05-02T06:46:19.375Z,22.2
2023-05-02T06:51:19.434Z,22
2023-05-02T06:56:19.442Z,22
2023-05-02T07:01:19.457Z,22
2023-05-02T07:06:19.475Z,22
2023-05-02T07:11:19.422Z,21.7
2023-05-02T07:16:19.426Z,22
2023-05-02T07:21:19.384Z,21.4
2023-05-02T07:26:19.411Z,22.4
2023-05-02T07:31:19.567Z,22.4
2023-05-02T07:36:19.517Z,21.4
2023-05-02T07:41:19.418Z,21.4
2023-05-02T07:46:19.410Z,21.4
2023-05-02T07:51:19.419Z,21.4
2023-05-02T07:56:19.329Z,20.5
2023-05-02T08:01:19.394Z,20.5
2023-05-02T08:06:19.454Z,20.5
2023-05-02T08:11:20.085Z,21.4
2023-05-02T08:16:19.453Z,21.4
2023-05-02T08:21:19.454Z,20.5
2023-05-02T08:26:19.460Z,21.5
2023-05-02T08:31:19.379Z,23
2023-05-02T08:36:19.425Z,23
2023-05-02T08:41:19.407Z,23
2023-05-02T08:46:19.455Z,21.5
2023-05-02T08:56:19.449Z,22.5
2023-05-02T09:01:22.489Z,22.5
2023-05-02T09:06:22.439Z,20.3
2023-05-02T09:11:22.433Z,20.3
2023-05-02T09:16:22.412Z,21
2023-05-02T09:21:22.399Z,21
2023-05-02T09:26:22.407Z,21
2023-05-02T09:31:38.107Z,20.6
2023-05-02T09:36:22.405Z,19.8
2023-05-02T09:41:22.415Z,18
2023-05-02T09:46:22.436Z,16.4
2023-05-02T09:51:22.410Z,16.4
2023-05-02T09:56:24.041Z,16.3
2023-05-02T10:01:22.416Z,15.6
2023-05-02T10:06:22.457Z,15.6
2023-05-02T10:11:22.479Z,15.5
2023-05-02T10:16:22.434Z,12.7
2023-05-02T10:21:22.409Z,11.9
2023-05-02T10:26:22.415Z,11.9
2023-05-02T10:31:22.490Z,11.7
2023-05-02T10:36:22.395Z,11.7
2023-05-02T10:41:22.430Z,11.9
2023-05-02T10:46:22.433Z,11.9
2023-05-02T10:51:22.398Z,12.2
2023-05-02T10:56:22.464Z,12.2
2023-05-02T11:01:22.481Z,12.9
2023-05-02T11:06:22.435Z,13.7
2023-05-02T11:11:22.395Z,13.7
2023-05-02T11:16:22.431Z,12.3
2023-05-02T11:21:22.419Z,13.7
2023-05-02T11:26:22.668Z,13.4
2023-05-02T11:31:22.414Z,13.4
2023-05-02T11:36:22.449Z,12.7
2023-05-02T11:41:22.413Z,12.5
2023-05-02T11:46:22.443Z,12.5
2023-05-02T11:51:22.547Z,12.5
2023-05-02T11:56:22.425Z,11.2
2023-05-02T12:01:22.761Z,10.9
2023-05-02T12:06:22.532Z,10.8
2023-05-02T12:11:22.386Z,10.5
2023-05-02T12:16:22.442Z,10.5
2023-05-02T12:21:22.463Z,10.6
2023-05-02T12:26:22.707Z,10.5
2023-05-02T12:31:22.565Z,10.6
2023-05-02T12:36:22.444Z,10.8
2023-05-02T12:41:22.395Z,11.3
2023-05-02T12:46:22.492Z,11.6
2023-05-02T12:51:22.502Z,11.6
2023-05-02T12:56:22.409Z,11.3
2023-05-02T13:01:22.540Z,11.3
2023-05-02T13:06:22.486Z,10.9
2023-05-02T13:11:22.510Z,10.8
2023-05-02T13:16:22.513Z,10.8
2023-05-02T13:21:22.471Z,10.8
2023-05-02T13:26:22.461Z,10.8
2023-05-02T13:31:22.502Z,10.8
2023-05-02T13:36:22.408Z,9.4
2023-05-02T13:41:22.435Z,9.4
2023-05-02T13:46:22.545Z,8.1
2023-05-02T13:51:22.508Z,8.1
2023-05-02T13:56:22.470Z,8.1
2023-05-02T14:01:22.469Z,8.1
2023-05-02T14:06:22.498Z,7.7
2023-05-02T14:11:22.429Z,7.7
2023-05-02T14:16:22.516Z,7.3
2023-05-02T14:21:22.509Z,7.3
2023-05-02T14:26:22.508Z,7.4
2023-05-02T14:31:22.526Z,7.4
2023-05-02T14:36:22.524Z,7.3
2023-05-02T14:41:22.451Z,7.3
2023-05-02T14:46:22.471Z,7.3
2023-05-02T14:51:22.453Z,6.5
2023-05-02T14:56:22.456Z,6.5
2023-05-02T15:01:22.556Z,6.4
2023-05-02T15:06:22.514Z,6.4
2023-05-02T15:17:41.431Z,4.7
2023-05-02T15:22:41.457Z,5
2023-05-02T15:27:41.431Z,5.3
2023-05-02T15:32:41.514Z,5.75
2023-05-02T15:37:41.542Z,6.2
2023-05-02T15:42:41.651Z,6.05
2023-05-02T15:47:41.517Z,6
2023-05-02T15:52:41.431Z,6
2023-05-02T15:57:41.417Z,6
2023-05-02T16:02:41.479Z,5.9
2023-05-02T16:07:41.436Z,5.8
2023-05-02T16:12:41.436Z,5.2
2023-05-02T16:17:41.467Z,4.9
2023-05-02T16:22:41.468Z,4.9
2023-05-02T16:27:41.457Z,5
2023-05-02T16:32:41.480Z,5.2
2023-05-02T16:37:41.415Z,5.7
2023-05-02T16:42:41.444Z,5.2
2023-05-02T16:47:41.467Z,5.7
2023-05-02T16:52:41.482Z,5.8
2023-05-02T16:57:41.466Z,5.8
2023-05-02T17:02:41.522Z,5.8
2023-05-02T17:07:41.429Z,6.6
2023-05-02T17:12:41.501Z,6.6
2023-05-02T17:17:41.478Z,6.8
2023-05-02T17:22:41.472Z,6.8
2023-05-02T17:27:42.430Z,7.7
2023-05-02T17:32:41.542Z,15.4
2023-05-02T17:37:41.419Z,25.9
2023-05-02T17:42:41.511Z,25.9
2023-05-02T17:47:41.458Z,35.5
2023-05-02T17:52:41.435Z,35.5
2023-05-02T17:57:41.419Z,35.5
2023-05-02T18:02:41.471Z,24.6
2023-05-02T18:07:41.455Z,12
2023-05-02T18:12:41.463Z,12
2023-05-02T18:17:41.507Z,8.8
2023-05-02T18:22:41.444Z,8.8
2023-05-02T18:27:41.449Z,8.7
2023-05-02T18:32:41.516Z,8.7
2023-05-02T18:37:41.613Z,8.8
2023-05-02T18:42:41.491Z,8.9
2023-05-02T18:47:41.520Z,8.9
2023-05-02T18:52:41.456Z,8.9
2023-05-02T18:57:41.488Z,9.3
2023-05-02T19:02:41.555Z,9.3
2023-05-02T19:07:41.483Z,9.3
2023-05-02T19:12:43.244Z,8.5
2023-05-02T19:17:41.552Z,7.9
2023-05-02T19:22:41.568Z,7.9
2023-05-02T19:27:42.151Z,7.9
2023-05-02T19:32:41.573Z,7.4
2023-05-02T19:37:41.490Z,7.4
2023-05-02T19:42:41.503Z,6.8
2023-05-02T19:47:41.533Z,7.4
2023-05-02T19:52:41.558Z,8.2
2023-05-02T19:57:41.506Z,8.2
2023-05-02T20:02:41.658Z,7.9
2023-05-02T20:07:41.505Z,8.2
2023-05-02T20:12:41.491Z,7.9
2023-05-02T20:17:41.487Z,7.9
2023-05-02T20:22:41.510Z,8.9
2023-05-02T20:27:41.469Z,8.9
2023-05-02T20:32:41.499Z,8.9
2023-05-02T20:37:41.527Z,9.8
2023-05-02T20:42:41.508Z,11.1
2023-05-02T20:47:41.536Z,11.8
2023-05-02T20:52:41.500Z,11.8
2023-05-02T20:57:41.511Z,11.8
2023-05-02T21:02:41.534Z,11.1
2023-05-02T21:07:41.517Z,10.4
2023-05-02T21:12:41.524Z,9.9
2023-05-02T21:17:41.534Z,9.9
2023-05-02T21:22:41.505Z,9.9
2023-05-02T21:27:41.556Z,9.9
2023-05-02T21:32:41.526Z,10.1
2023-05-02T21:37:41.485Z,10.1
2023-05-02T21:42:41.505Z,10.5
2023-05-02T21:47:41.543Z,10.5
2023-05-02T21:52:41.523Z,10.8
2023-05-02T21:57:41.549Z,10.8
2023-05-02T22:02:41.538Z,10.8
2023-05-02T22:07:41.557Z,10.8
2023-05-02T22:12:41.505Z,11.1
2023-05-02T22:17:41.577Z,10.8
2023-05-02T22:22:41.538Z,11.7
2023-05-02T22:27:41.505Z,12.2
2023-05-02T22:32:41.529Z,12.3
2023-05-02T22:37:41.524Z,13.4
2023-05-02T22:42:41.537Z,14.4
2023-05-02T22:47:41.533Z,14.4
2023-05-02T22:52:41.569Z,14.4
2023-05-02T22:57:41.507Z,13
2023-05-02T23:02:41.616Z,13
2023-05-02T23:07:41.598Z,13.3
2023-05-02T23:12:41.507Z,13.3
2023-05-02T23:17:41.534Z,13.3
2023-05-02T23:22:41.578Z,13.7
2023-05-02T23:27:41.555Z,13.8
2023-05-02T23:32:41.576Z,13.9
2023-05-02T23:37:41.529Z,13.8
2023-05-02T23:42:41.564Z,13.9
2023-05-02T23:47:41.652Z,13.9
2023-05-02T23:52:41.548Z,13.9
2023-05-02T23:57:41.496Z,13.9
